Time;durP1;ratioP1;P1;durP2;ratioP2;P2;SDS_P1;SDS_P2;PMS_P1;PMS_P2;Temp;Humidity;BMP_temperature;BMP_pressure;BME280_temperature;BME280_humidity;BME280_pressure;Samples;Min_cycle;Max_cycle;Signal;HPM_P1;HPM_P2
2023/09/02 00:01:46;;;;;;;;;;;;;;;27.03;46.45;101811.41;106761;1262;25306;-49
2023/09/02 00:04:13;;;;;;;;;;;;;;;27.00;46.68;101815.17;106806;1269;25393;-50
2023/09/02 00:06:40;;;;;;;;;;;;;;;26.98;46.65;101816.58;106816;1263;25341;-50
2023/09/02 00:09:07;;;;;;;;;;;;;;;26.97;46.93;101816.67;106779;1269;25334;-50
2023/09/02 00:11:34;;;;;;;;;;;;;;;26.94;46.99;101823.29;106793;1273;25495;-50
2023/09/02 00:14:01;;;;;;;;;;;;;;;26.91;47.04;101823.68;106693;1275;25305;-50
2023/09/02 00:16:28;;;;;;;;;;;;;;;26.87;47.23;101820.41;106757;1269;25344;-50
2023/09/02 00:18:55;;;;;;;;;;;;;;;26.85;47.00;101823.44;106793;1261;24223;-50
2023/09/02 00:21:21;;;;;;;;;;;;;;;26.81;47.11;101823.15;106779;1269;25292;-51
2023/09/02 00:23:48;;;;;;;;;;;;;;;26.79;47.31;101821.39;106734;1266;22786;-50
2023/09/02 00:26:15;;;;;;;;;;;;;;;26.77;47.44;101827.77;106740;1266;25293;-51
2023/09/02 00:28:43;;;;;;;;;;;;;;;26.75;47.54;101831.83;106760;1269;24227;-50
2023/09/02 00:31:09;;;;;;;;;;;;;;;26.73;47.65;101829.48;106767;1259;25364;-52
2023/09/02 00:33:37;;;;;;;;;;;;;;;26.71;47.56;101834.75;106687;1273;25323;-51
2023/09/02 00:36:04;;;;;;;;;;;;;;;26.69;47.78;101834.56;106478;1259;536595;-50
2023/09/02 00:38:31;;;;;;;;;;;;;;;26.67;48.23;101836.63;106897;1257;25316;-53
2023/09/02 00:41:00;;;;;;;;;;;;;;;26.65;48.10;101835.58;106811;1264;23855;-50
2023/09/02 00:43:27;;;;;;;;;;;;;;;26.63;48.20;101840.52;106921;1264;22741;-51
2023/09/02 00:45:54;;;;;;;;;;;;;;;26.62;48.01;101845.59;106711;1256;25272;-50
2023/09/02 00:48:21;;;;;;;;;;;;;;;26.60;47.68;101846.24;106858;1268;25315;-50
2023/09/02 00:50:48;;;;;;;;;;;;;;;26.57;47.75;101846.79;106852;1267;25396;-50
2023/09/02 00:53:18;;;;;;;;;;;;;;;26.54;47.78;101843.28;106916;1273;25305;-50
2023/09/02 00:55:45;;;;;;;;;;;;;;;26.51;47.83;101841.70;106774;1262;24254;-50
2023/09/02 00:58:12;;;;;;;;;;;;;;;26.50;47.68;101841.47;106782;1267;24388;-50
2023/09/02 01:00:39;;;;;;;;;;;;;;;26.49;47.84;101840.98;106741;1269;25316;-49
2023/09/02 01:03:06;;;;;;;;;;;;;;;26.47;47.77;101845.34;106773;1263;25407;-50
2023/09/02 01:05:34;;;;;;;;;;;;;;;26.47;47.89;101846.30;106750;1265;25340;-51
2023/09/02 01:08:03;;;;;;;;;;;;;;;26.46;47.89;101850.31;106825;1266;25397;-50
2023/09/02 01:10:31;;;;;;;;;;;;;;;26.46;47.93;101849.77;106770;1260;25337;-50
2023/09/02 01:12:58;;;;;;;;;;;;;;;26.44;47.96;101847.52;106710;1261;25334;-50
2023/09/02 01:15:24;;;;;;;;;;;;;;;26.43;47.67;101845.11;106688;1272;25365;-50
2023/09/02 01:17:51;;;;;;;;;;;;;;;26.42;47.55;101853.05;106778;1262;25465;-50
2023/09/02 01:20:19;;;;;;;;;;;;;;;26.42;47.29;101853.63;106826;1273;24202;-50
2023/09/02 01:22:52;;;;;;;;;;;;;;;26.41;47.01;101853.48;106808;1263;25331;-50
2023/09/02 01:25:25;;;;;;;;;;;;;;;26.39;46.76;101852.37;106640;1262;25385;-49
2023/09/02 01:27:54;;;;;;;;;;;;;;;26.36;47.17;101853.85;106618;1259;25334;-50
2023/09/02 01:30:21;;;;;;;;;;;;;;;26.34;47.35;101860.91;106557;1278;25542;-50
2023/09/02 01:32:50;;;;;;;;;;;;;;;26.31;47.46;101858.61;106805;1262;25344;-50
2023/09/02 01:35:18;;;;;;;;;;;;;;;26.29;47.52;101863.44;106814;1260;24209;-56
2023/09/02 01:37:48;;;;;;;;;;;;;;;26.26;47.67;101863.08;106563;1262;25455;-50
2023/09/02 01:40:21;;;;;;;;;;;;;;;26.23;47.51;101865.27;106796;1270;25315;-50
2023/09/02 01:42:49;;;;;;;;;;;;;;;26.19;47.53;101872.48;106799;1256;25549;-50
2023/09/02 01:45:16;;;;;;;;;;;;;;;26.15;47.75;101874.33;106723;1266;25334;-50
2023/09/02 01:47:43;;;;;;;;;;;;;;;26.13;48.03;101875.54;106690;1264;25305;-50
2023/09/02 01:50:11;;;;;;;;;;;;;;;26.12;48.48;101875.63;106813;1270;25355;-50
2023/09/02 01:52:38;;;;;;;;;;;;;;;26.10;48.08;101877.71;106815;1269;25463;-50
2023/09/02 01:55:05;;;;;;;;;;;;;;;26.08;48.11;101882.84;106771;1273;22515;-50
2023/09/02 01:57:32;;;;;;;;;;;;;;;26.07;48.18;101883.27;106738;1266;25501;-51
2023/09/02 01:59:59;;;;;;;;;;;;;;;26.05;47.95;101887.50;106434;1265;22628;-50
2023/09/02 02:02:26;;;;;;;;;;;;;;;26.01;47.91;101888.64;106498;1262;25664;-49
2023/09/02 02:04:55;;;;;;;;;;;;;;;25.98;48.21;101890.10;106663;1271;23894;-50
2023/09/02 02:07:22;;;;;;;;;;;;;;;25.95;48.30;101886.89;106565;1270;25536;-50
2023/09/02 02:09:50;;;;;;;;;;;;;;;25.92;48.36;101882.86;106369;1273;25357;-50
2023/09/02 02:12:17;;;;;;;;;;;;;;;25.89;48.52;101879.55;106742;1262;25403;-49
2023/09/02 02:14:46;;;;;;;;;;;;;;;25.87;48.80;101882.16;106651;1269;24612;-50
2023/09/02 02:17:13;;;;;;;;;;;;;;;25.86;48.75;101879.03;106429;1275;25318;-50
2023/09/02 02:19:40;;;;;;;;;;;;;;;25.83;48.67;101880.76;106563;1275;25296;-49
2023/09/02 02:22:07;;;;;;;;;;;;;;;25.83;48.82;101883.98;106587;1273;25395;-55
2023/09/02 02:24:34;;;;;;;;;;;;;;;25.83;48.75;101883.80;106497;1262;25307;-51
2023/09/02 02:27:02;;;;;;;;;;;;;;;25.83;48.67;101888.56;106780;1270;25353;-51
2023/09/02 02:29:29;;;;;;;;;;;;;;;25.82;48.53;101891.55;106711;1265;22515;-50
2023/09/02 02:31:56;;;;;;;;;;;;;;;25.80;48.56;101897.47;106385;1272;25347;-50
2023/09/02 02:34:23;;;;;;;;;;;;;;;25.79;48.60;101898.80;106839;1264;25538;-50
2023/09/02 02:36:50;;;;;;;;;;;;;;;25.77;48.46;101899.84;106451;1276;25300;-51
2023/09/02 02:39:18;;;;;;;;;;;;;;;25.75;48.61;101899.64;106752;1276;25399;-50
2023/09/02 02:41:45;;;;;;;;;;;;;;;25.76;48.83;101902.43;106577;1270;25366;-50
2023/09/02 02:44:12;;;;;;;;;;;;;;;25.77;49.07;101902.71;106772;1273;23851;-50
2023/09/02 02:46:39;;;;;;;;;;;;;;;25.77;49.13;101907.00;106735;1260;25340;-50
2023/09/02 02:49:06;;;;;;;;;;;;;;;25.74;49.16;101906.42;106787;1270;25385;-50
2023/09/02 02:51:33;;;;;;;;;;;;;;;25.73;49.30;101904.96;106790;1260;25306;-50
2023/09/02 02:54:00;;;;;;;;;;;;;;;25.69;49.04;101904.52;106750;1270;23215;-50
2023/09/02 02:56:27;;;;;;;;;;;;;;;25.65;49.15;101905.48;106769;1273;25306;-50
2023/09/02 02:58:55;;;;;;;;;;;;;;;25.63;49.31;101905.80;106743;1272;24226;-50
2023/09/02 03:01:22;;;;;;;;;;;;;;;25.62;49.58;101907.23;106755;1259;22523;-55
2023/09/02 03:03:49;;;;;;;;;;;;;;;25.62;49.52;101904.46;106824;1257;25334;-50
2023/09/02 03:06:20;;;;;;;;;;;;;;;25.61;49.41;101899.66;106613;1263;25313;-53
2023/09/02 03:08:47;;;;;;;;;;;;;;;25.61;49.59;101903.09;106790;1267;25213;-53
2023/09/02 03:11:14;;;;;;;;;;;;;;;25.59;49.40;101901.27;106757;1273;25439;-51
2023/09/02 03:13:41;;;;;;;;;;;;;;;25.56;49.29;101898.23;106676;1265;25326;-51
2023/09/02 03:16:15;;;;;;;;;;;;;;;25.53;49.20;101899.14;106490;1269;24363;-52
2023/09/02 03:18:43;;;;;;;;;;;;;;;25.51;49.15;101904.44;106873;1260;25497;-53
2023/09/02 03:21:10;;;;;;;;;;;;;;;25.48;49.39;101908.58;106790;1270;25314;-51
2023/09/02 03:23:37;;;;;;;;;;;;;;;25.44;49.40;101911.15;106726;1260;25306;-51
2023/09/02 03:26:08;;;;;;;;;;;;;;;25.40;49.26;101909.41;106781;1264;22525;-50
2023/09/02 03:28:35;;;;;;;;;;;;;;;25.38;49.44;101911.48;106902;1268;25340;-51
2023/09/02 03:31:10;;;;;;;;;;;;;;;25.37;49.57;101915.98;106869;1275;23842;-51
2023/09/02 03:33:38;;;;;;;;;;;;;;;25.38;49.58;101917.20;106916;1270;25341;-51
2023/09/02 03:36:06;;;;;;;;;;;;;;;25.37;49.40;101918.48;106778;1272;25382;-51
2023/09/02 03:38:33;;;;;;;;;;;;;;;25.38;49.64;101921.11;106747;1260;25306;-50
2023/09/02 03:41:00;;;;;;;;;;;;;;;25.38;49.46;101923.77;106688;1270;25357;-50
2023/09/02 03:43:27;;;;;;;;;;;;;;;25.38;49.58;101930.48;106830;1270;25334;-51
2023/09/02 03:45:56;;;;;;;;;;;;;;;25.39;49.59;101933.13;106802;1275;25334;-53
2023/09/02 03:48:25;;;;;;;;;;;;;;;25.38;49.22;101934.77;106878;1267;22514;-50
2023/09/02 03:51:11;;;;;;;;;;;;;;;25.37;49.06;101930.62;106764;1259;25313;-50
2023/09/02 03:53:40;;;;;;;;;;;;;;;25.36;49.17;101931.92;106776;1271;22511;-50
2023/09/02 03:56:08;;;;;;;;;;;;;;;25.35;49.05;101933.60;106828;1266;25439;-51
2023/09/02 03:58:36;;;;;;;;;;;;;;;25.35;49.48;101937.32;106758;1262;25501;-51
2023/09/02 04:01:03;;;;;;;;;;;;;;;25.37;49.66;101939.34;106753;1265;24412;-51
2023/09/02 04:03:32;;;;;;;;;;;;;;;25.37;49.49;101939.63;106689;1265;25396;-50
2023/09/02 04:06:00;;;;;;;;;;;;;;;25.40;49.45;101938.23;106836;1267;24260;-50
2023/09/02 04:08:33;;;;;;;;;;;;;;;25.41;49.22;101935.84;106814;1264;22509;-51
2023/09/02 04:11:02;;;;;;;;;;;;;;;25.42;49.32;101940.56;106816;1268;24192;-51
2023/09/02 04:13:30;;;;;;;;;;;;;;;25.44;49.13;101941.52;106827;1260;23949;-50
2023/09/02 04:16:10;;;;;;;;;;;;;;;25.45;49.28;101942.48;106854;1269;24227;-51
2023/09/02 04:18:38;;;;;;;;;;;;;;;25.47;49.28;101942.41;106889;1263;25452;-50
2023/09/02 04:21:08;;;;;;;;;;;;;;;25.48;49.27;101943.05;106769;1270;25325;-50
2023/09/02 04:23:37;;;;;;;;;;;;;;;25.48;49.46;101942.52;106573;1262;22504;-51
2023/09/02 04:26:07;;;;;;;;;;;;;;;25.46;49.35;101939.57;106677;1264;24038;-51
2023/09/02 04:28:34;;;;;;;;;;;;;;;25.45;49.53;101944.45;106603;1270;25321;-51
2023/09/02 04:31:02;;;;;;;;;;;;;;;25.46;49.29;101944.97;106808;1260;25376;-51
2023/09/02 04:33:31;;;;;;;;;;;;;;;25.45;49.09;101948.02;106839;1260;25306;-50
2023/09/02 04:36:00;;;;;;;;;;;;;;;25.46;49.60;101947.63;106784;1263;22540;-50
2023/09/02 04:38:29;;;;;;;;;;;;;;;25.46;49.26;101942.81;106867;1264;22577;-53
2023/09/02 04:40:55;;;;;;;;;;;;;;;25.45;49.48;101943.56;106348;1266;25339;-50
2023/09/02 04:43:23;;;;;;;;;;;;;;;25.46;49.44;101944.41;106732;1265;25491;-49
2023/09/02 04:45:52;;;;;;;;;;;;;;;25.46;49.33;101946.35;106826;1266;22506;-50
2023/09/02 04:48:19;;;;;;;;;;;;;;;25.45;49.55;101948.57;106814;1267;25344;-55
2023/09/02 04:50:51;;;;;;;;;;;;;;;25.44;49.50;101950.94;106760;1260;25334;-49
2023/09/02 04:53:18;;;;;;;;;;;;;;;25.45;49.66;101954.96;106673;1274;25325;-49
2023/09/02 04:55:46;;;;;;;;;;;;;;;25.45;49.61;101953.01;106735;1258;25465;-49
2023/09/02 04:58:14;;;;;;;;;;;;;;;25.45;49.55;101949.83;106874;1267;22510;-52
2023/09/02 05:00:42;;;;;;;;;;;;;;;25.44;49.72;101954.81;106794;1270;25217;-52
2023/09/02 05:03:10;;;;;;;;;;;;;;;25.44;49.72;101954.65;106740;1277;25385;-52
2023/09/02 05:05:37;;;;;;;;;;;;;;;25.46;49.84;101955.58;106878;1260;25316;-49
2023/09/02 05:08:07;;;;;;;;;;;;;;;25.48;49.83;101957.22;106788;1270;25316;-51
2023/09/02 05:10:34;;;;;;;;;;;;;;;25.49;49.89;101954.33;106809;1261;25374;-51
2023/09/02 05:13:02;;;;;;;;;;;;;;;25.49;50.01;101955.73;106724;1257;25333;-50
2023/09/02 05:15:30;;;;;;;;;;;;;;;25.51;49.68;101958.10;106788;1270;22516;-53
2023/09/02 05:17:58;;;;;;;;;;;;;;;25.52;49.94;101957.15;106848;1256;25425;-49
2023/09/02 05:20:27;;;;;;;;;;;;;;;25.54;49.80;101959.34;106745;1261;25367;-50
2023/09/02 05:22:54;;;;;;;;;;;;;;;25.56;49.80;101958.15;106761;1260;25316;-49
2023/09/02 05:25:21;;;;;;;;;;;;;;;25.58;49.68;101960.70;106729;1270;25325;-49
2023/09/02 05:27:48;;;;;;;;;;;;;;;25.61;49.77;101964.02;106647;1264;24179;-49
2023/09/02 05:30:15;;;;;;;;;;;;;;;25.64;49.86;101966.47;106807;1266;25466;-49
2023/09/02 05:32:42;;;;;;;;;;;;;;;25.68;50.15;101965.32;106771;1257;25402;-50
2023/09/02 05:35:09;;;;;;;;;;;;;;;25.72;50.14;101966.48;106778;1257;25465;-50
2023/09/02 05:37:36;;;;;;;;;;;;;;;25.77;50.14;101966.86;106696;1270;25296;-49
2023/09/02 05:40:03;;;;;;;;;;;;;;;25.82;49.97;101969.05;106919;1260;25305;-50
2023/09/02 05:42:30;;;;;;;;;;;;;;;25.88;49.87;101966.19;106734;1263;22520;-53
2023/09/02 05:44:57;;;;;;;;;;;;;;;25.93;49.53;101966.15;106819;1267;25327;-51
2023/09/02 05:47:25;;;;;;;;;;;;;;;25.98;49.47;101967.84;106795;1256;25445;-49
2023/09/02 05:49:52;;;;;;;;;;;;;;;26.02;49.48;101970.92;106653;1261;25296;-50
2023/09/02 05:52:18;;;;;;;;;;;;;;;26.06;49.16;101971.16;106560;1264;25395;-50
2023/09/02 05:54:45;;;;;;;;;;;;;;;26.11;48.99;101969.99;106752;1264;25305;-49
2023/09/02 05:57:12;;;;;;;;;;;;;;;26.15;48.87;101975.58;106915;1260;25344;-50
2023/09/02 05:59:39;;;;;;;;;;;;;;;26.21;48.81;101970.36;106829;1257;22584;-49
2023/09/02 06:02:06;;;;;;;;;;;;;;;26.28;48.60;101973.23;106584;1278;25377;-50
2023/09/02 06:04:33;;;;;;;;;;;;;;;26.35;48.76;101973.60;106792;1257;25359;-49
2023/09/02 06:06:59;;;;;;;;;;;;;;;26.45;49.14;101972.58;106825;1270;25465;-48
2023/09/02 06:09:29;;;;;;;;;;;;;;;26.56;49.42;101974.06;106570;1269;25426;-49
2023/09/02 06:11:56;;;;;;;;;;;;;;;26.69;48.73;101974.98;106754;1270;24359;-50
2023/09/02 06:14:23;;;;;;;;;;;;;;;26.83;48.45;101975.09;106820;1260;25311;-50
2023/09/02 06:16:50;;;;;;;;;;;;;;;26.99;48.14;101976.44;106812;1264;25334;-50
2023/09/02 06:19:17;;;;;;;;;;;;;;;27.14;47.39;101976.77;106880;1257;24259;-50
2023/09/02 06:21:45;;;;;;;;;;;;;;;27.31;47.11;101979.29;106938;1257;25331;-49
2023/09/02 06:24:12;;;;;;;;;;;;;;;27.48;46.71;101978.09;106849;1260;25326;-50
2023/09/02 06:26:39;;;;;;;;;;;;;;;27.63;46.58;101971.80;106825;1257;25323;-50
2023/09/02 06:29:06;;;;;;;;;;;;;;;27.76;46.68;101973.15;106694;1267;22685;-50
2023/09/02 06:31:33;;;;;;;;;;;;;;;27.88;47.76;101970.98;106668;1270;25303;-50
2023/09/02 06:34:00;;;;;;;;;;;;;;;27.97;48.05;101975.64;106549;1264;22514;-49
2023/09/02 06:36:27;;;;;;;;;;;;;;;28.03;47.87;101973.21;106577;1269;25325;-49
2023/09/02 06:38:55;;;;;;;;;;;;;;;28.11;47.88;101974.73;106842;1270;25385;-50
2023/09/02 06:41:22;;;;;;;;;;;;;;;28.15;47.97;101976.75;106682;1263;25300;-50
2023/09/02 06:43:49;;;;;;;;;;;;;;;28.14;48.27;101974.30;106852;1261;25376;-51
2023/09/02 06:46:17;;;;;;;;;;;;;;;28.11;48.83;101975.66;106435;1270;25388;-51
2023/09/02 06:48:44;;;;;;;;;;;;;;;28.05;49.04;101979.11;106779;1257;23667;-51
2023/09/02 06:51:11;;;;;;;;;;;;;;;28.00;49.22;101979.52;106604;1261;23851;-51
2023/09/02 06:53:39;;;;;;;;;;;;;;;27.96;49.35;101983.71;106852;1263;25423;-53
2023/09/02 06:56:09;;;;;;;;;;;;;;;27.97;49.55;101979.23;106812;1258;25334;-53
2023/09/02 06:58:40;;;;;;;;;;;;;;;27.98;49.35;101977.92;106760;1259;25353;-50
2023/09/02 07:01:08;;;;;;;;;;;;;;;27.97;49.28;101977.96;106781;1261;25357;-50
2023/09/02 07:03:35;;;;;;;;;;;;;;;27.97;48.99;101979.73;106806;1261;25325;-50
2023/09/02 07:06:03;;;;;;;;;;;;;;;28.00;48.93;101981.98;106854;1258;25344;-51
2023/09/02 07:08:30;;;;;;;;;;;;;;;28.05;48.73;101977.18;106799;1269;24382;-51
2023/09/02 07:10:57;;;;;;;;;;;;;;;28.13;48.37;101978.17;106814;1261;22661;-50
2023/09/02 07:13:23;;;;;;;;;;;;;;;28.27;47.86;101977.08;106728;1270;25469;-50
2023/09/02 07:16:03;;;;;;;;;;;;;;;28.43;47.39;101978.72;106799;1260;24227;-51
2023/09/02 07:18:30;;;;;;;;;;;;;;;28.62;47.02;101975.39;106754;1256;25450;-51
2023/09/02 07:21:00;;;;;;;;;;;;;;;28.86;46.10;101973.33;106723;1270;22515;-52
2023/09/02 07:23:28;;;;;;;;;;;;;;;29.12;45.71;101977.33;106721;1269;25330;-51
2023/09/02 07:25:56;;;;;;;;;;;;;;;29.37;44.88;101978.52;106347;1270;24309;-51
2023/09/02 07:28:23;;;;;;;;;;;;;;;29.47;44.86;101978.60;106756;1257;22513;-50
2023/09/02 07:30:50;;;;;;;;;;;;;;;29.56;44.28;101978.18;106571;1275;25436;-50
2023/09/02 07:33:17;;;;;;;;;;;;;;;29.65;44.06;101981.85;106749;1256;25319;-51
2023/09/02 07:35:44;;;;;;;;;;;;;;;29.71;43.57;101981.02;106599;1260;25465;-51
2023/09/02 07:38:11;;;;;;;;;;;;;;;29.66;43.47;101984.48;106752;1260;25344;-51
2023/09/02 07:40:38;;;;;;;;;;;;;;;29.63;43.63;101983.17;106786;1260;25433;-51
2023/09/02 07:43:06;;;;;;;;;;;;;;;29.57;43.81;101983.64;106805;1254;25300;-50
2023/09/02 07:45:32;;;;;;;;;;;;;;;29.54;43.62;101986.80;106808;1273;25330;-50
2023/09/02 07:48:00;;;;;;;;;;;;;;;29.49;43.40;101986.43;106690;1258;25466;-50
2023/09/02 07:50:27;;;;;;;;;;;;;;;29.46;43.52;101984.04;106790;1264;25328;-50
2023/09/02 07:52:54;;;;;;;;;;;;;;;29.43;43.69;101982.82;106766;1257;22915;-51
2023/09/02 07:55:21;;;;;;;;;;;;;;;29.42;43.39;101983.84;106788;1260;25318;-51
2023/09/02 07:57:48;;;;;;;;;;;;;;;29.38;43.30;101984.28;106808;1264;23854;-50
2023/09/02 08:00:15;;;;;;;;;;;;;;;29.36;43.06;101985.02;106793;1259;25770;-51
2023/09/02 08:02:42;;;;;;;;;;;;;;;29.34;43.04;101982.69;106816;1261;25364;-50
2023/09/02 08:05:09;;;;;;;;;;;;;;;29.34;42.73;101982.88;106779;1261;25396;-50
2023/09/02 08:07:36;;;;;;;;;;;;;;;29.32;42.59;101987.66;106673;1277;25333;-50
2023/09/02 08:10:03;;;;;;;;;;;;;;;29.32;42.35;101985.89;106839;1260;25344;-51
2023/09/02 08:12:30;;;;;;;;;;;;;;;29.35;42.70;101986.05;106772;1261;25456;-52
2023/09/02 08:14:57;;;;;;;;;;;;;;;29.38;42.21;101986.80;106787;1267;24033;-51
2023/09/02 08:17:24;;;;;;;;;;;;;;;29.40;41.98;101988.27;106744;1275;22707;-50
2023/09/02 08:19:52;;;;;;;;;;;;;;;29.41;42.06;101987.11;106780;1260;25302;-50
2023/09/02 08:22:19;;;;;;;;;;;;;;;29.42;42.35;101990.09;106849;1269;25330;-51
2023/09/02 08:24:46;;;;;;;;;;;;;;;29.42;42.14;101989.90;106841;1261;24214;-51
2023/09/02 08:27:13;;;;;;;;;;;;;;;29.44;42.02;101993.52;106559;1270;25315;-51
2023/09/02 08:29:39;;;;;;;;;;;;;;;29.46;41.73;101996.04;106733;1256;25211;-51
2023/09/02 08:32:06;;;;;;;;;;;;;;;29.49;41.95;101988.98;106734;1258;22531;-50
2023/09/02 08:34:33;;;;;;;;;;;;;;;29.53;42.03;101990.96;106668;1261;25324;-50
2023/09/02 08:37:00;;;;;;;;;;;;;;;29.59;41.92;101990.23;106592;1261;24197;-50
2023/09/02 08:39:27;;;;;;;;;;;;;;;29.65;41.48;101995.50;106644;1257;23873;-51
2023/09/02 08:41:55;;;;;;;;;;;;;;;29.69;41.09;101993.39;106704;1267;25337;-51
2023/09/02 08:44:22;;;;;;;;;;;;;;;29.74;40.55;101992.45;106548;1257;25316;-52
2023/09/02 08:46:49;;;;;;;;;;;;;;;29.79;39.88;101988.59;106393;1270;25338;-52
2023/09/02 08:49:16;;;;;;;;;;;;;;;29.83;39.69;101986.16;106657;1265;22532;-50
2023/09/02 08:51:43;;;;;;;;;;;;;;;29.86;40.37;101986.13;106846;1262;25423;-51
2023/09/02 08:54:10;;;;;;;;;;;;;;;29.89;40.31;101986.70;106737;1267;25319;-51
2023/09/02 08:56:41;;;;;;;;;;;;;;;29.93;40.17;101986.76;106948;1260;25316;-51
2023/09/02 08:59:12;;;;;;;;;;;;;;;29.97;39.98;101982.84;106704;1273;25347;-50
2023/09/02 09:01:43;;;;;;;;;;;;;;;30.03;39.89;101988.05;106806;1267;25324;-50
2023/09/02 09:04:10;;;;;;;;;;;;;;;30.11;39.72;101986.14;106851;1259;25424;-51
2023/09/02 09:06:37;;;;;;;;;;;;;;;30.18;39.56;101991.75;106726;1260;22550;-51
2023/09/02 09:09:05;;;;;;;;;;;;;;;30.24;38.88;101989.12;106890;1267;25337;-50
2023/09/02 09:11:32;;;;;;;;;;;;;;;30.30;38.40;101986.81;106602;1262;25654;-51
2023/09/02 09:13:59;;;;;;;;;;;;;;;30.34;38.30;101981.27;106760;1260;22527;-54
2023/09/02 09:16:26;;;;;;;;;;;;;;;30.39;38.51;101978.27;106725;1262;25319;-51
2023/09/02 09:18:53;;;;;;;;;;;;;;;30.45;37.78;101974.38;106846;1256;25446;-51
2023/09/02 09:21:20;;;;;;;;;;;;;;;30.47;37.36;101972.77;106730;1259;25341;-56
2023/09/02 09:23:47;;;;;;;;;;;;;;;30.50;37.64;101972.35;106897;1261;25315;-51
2023/09/02 09:26:15;;;;;;;;;;;;;;;30.56;38.14;101973.82;106759;1260;25305;-53
2023/09/02 09:28:50;;;;;;;;;;;;;;;30.63;38.09;101978.75;106463;1269;25383;-56
2023/09/02 09:31:18;;;;;;;;;;;;;;;30.70;37.74;101977.58;106846;1265;25323;-50
2023/09/02 09:33:55;;;;;;;;;;;;;;;30.75;36.91;101981.33;106870;1269;25341;-50
2023/09/02 09:36:22;;;;;;;;;;;;;;;30.77;36.88;101981.64;106673;1267;25398;-51
2023/09/02 09:38:49;;;;;;;;;;;;;;;30.80;37.01;101983.18;106654;1263;25382;-49
2023/09/02 09:41:16;;;;;;;;;;;;;;;30.84;37.06;101984.81;106757;1267;25357;-50
2023/09/02 09:43:43;;;;;;;;;;;;;;;30.88;36.98;101984.68;106736;1263;25315;-50
2023/09/02 09:46:14;;;;;;;;;;;;;;;30.91;36.80;101988.49;106583;1270;25494;-49
2023/09/02 09:48:48;;;;;;;;;;;;;;;30.95;36.81;101984.04;106708;1265;25385;-50
2023/09/02 09:51:23;;;;;;;;;;;;;;;31.00;36.92;101978.16;106853;1268;25385;-50
2023/09/02 09:53:50;;;;;;;;;;;;;;;31.06;36.65;101975.83;106820;1259;25362;-50
2023/09/02 09:56:17;;;;;;;;;;;;;;;31.13;36.73;101977.54;106733;1266;25511;-50
2023/09/02 09:58:45;;;;;;;;;;;;;;;31.19;36.98;101979.34;106686;1257;25334;-50
2023/09/02 10:01:21;;;;;;;;;;;;;;;31.24;37.09;101981.60;106928;1256;25306;-50
2023/09/02 10:03:50;;;;;;;;;;;;;;;31.29;36.54;101980.23;106850;1257;25445;-50
2023/09/02 10:06:18;;;;;;;;;;;;;;;31.32;36.50;101982.48;106867;1267;25305;-50
2023/09/02 10:08:49;;;;;;;;;;;;;;;31.33;36.38;101982.05;106843;1260;22548;-50
2023/09/02 10:11:21;;;;;;;;;;;;;;;31.34;36.08;101982.67;106636;1262;25377;-49
2023/09/02 10:13:55;;;;;;;;;;;;;;;31.36;36.42;101985.00;106745;1257;22649;-51
2023/09/02 10:16:23;;;;;;;;;;;;;;;31.36;36.31;101984.41;106452;1262;25459;-50
2023/09/02 10:18:50;;;;;;;;;;;;;;;31.37;36.42;101979.34;106713;1256;24232;-51
2023/09/02 10:21:18;;;;;;;;;;;;;;;31.43;36.40;101978.48;106537;1258;25357;-52
2023/09/02 10:23:49;;;;;;;;;;;;;;;31.50;36.23;101979.27;106861;1257;23852;-53
2023/09/02 10:26:24;;;;;;;;;;;;;;;31.54;36.29;101982.80;106412;1275;22648;-50
2023/09/02 10:28:51;;;;;;;;;;;;;;;31.57;36.43;101981.10;106648;1259;24191;-51
2023/09/02 10:31:18;;;;;;;;;;;;;;;31.59;36.53;101983.92;106759;1259;23890;-51
2023/09/02 10:33:46;;;;;;;;;;;;;;;31.62;36.16;101981.92;106852;1260;24017;-51
2023/09/02 10:36:14;;;;;;;;;;;;;;;31.65;36.08;101982.38;106784;1256;25312;-51
2023/09/02 10:38:41;;;;;;;;;;;;;;;31.68;36.30;101985.80;106826;1261;23855;-51
2023/09/02 10:41:11;;;;;;;;;;;;;;;31.71;36.52;101984.47;106856;1256;23894;-51
2023/09/02 10:43:39;;;;;;;;;;;;;;;31.74;36.18;101982.17;106896;1269;25548;-51
2023/09/02 10:46:07;;;;;;;;;;;;;;;31.77;36.11;101982.79;106686;1262;25318;-51
2023/09/02 10:48:35;;;;;;;;;;;;;;;31.79;36.19;101979.19;106821;1259;24177;-50
2023/09/02 10:51:02;;;;;;;;;;;;;;;31.81;36.03;101972.73;106834;1256;25385;-50
2023/09/02 10:53:48;;;;;;;;;;;;;;;31.83;35.84;101970.80;106811;1260;24204;-50
2023/09/02 10:56:24;;;;;;;;;;;;;;;31.85;35.76;101970.27;106868;1256;25353;-50
2023/09/02 10:58:51;;;;;;;;;;;;;;;31.84;35.88;101963.66;106783;1259;24223;-51
2023/09/02 11:01:18;;;;;;;;;;;;;;;31.83;35.87;101966.48;106769;1262;25458;-51
2023/09/02 11:03:45;;;;;;;;;;;;;;;31.81;35.86;101965.36;106780;1258;25344;-50
2023/09/02 11:06:14;;;;;;;;;;;;;;;31.80;35.94;101960.31;106756;1271;25344;-50
2023/09/02 11:08:45;;;;;;;;;;;;;;;31.77;36.28;101959.30;106690;1259;23881;-50
2023/09/02 11:11:12;;;;;;;;;;;;;;;31.77;36.26;101955.41;106876;1256;25473;-50
2023/09/02 11:13:58;;;;;;;;;;;;;;;31.77;36.30;101952.69;106857;1259;25341;-50
2023/09/02 11:16:25;;;;;;;;;;;;;;;31.79;36.54;101951.79;106835;1267;25344;-50
2023/09/02 11:18:53;;;;;;;;;;;;;;;31.81;36.36;101954.79;106460;1264;25341;-49
2023/09/02 11:21:39;;;;;;;;;;;;;;;31.84;35.71;101954.36;106804;1260;25353;-50
2023/09/02 11:24:33;;;;;;;;;;;;;;;31.84;35.67;101953.60;106799;1260;25414;-50
2023/09/02 11:27:00;;;;;;;;;;;;;;;31.84;35.77;101950.39;106430;1262;25622;-49
2023/09/02 11:29:28;;;;;;;;;;;;;;;31.83;35.83;101952.27;106353;1262;25316;-51
2023/09/02 11:31:56;;;;;;;;;;;;;;;31.82;36.05;101952.34;106354;1262;25415;-50
2023/09/02 11:34:24;;;;;;;;;;;;;;;31.82;35.86;101951.65;106391;1260;25696;-50
2023/09/02 11:36:51;;;;;;;;;;;;;;;31.83;36.05;101952.11;106252;1276;25326;-50
2023/09/02 11:39:18;;;;;;;;;;;;;;;31.83;36.22;101949.91;106344;1264;25390;-55
2023/09/02 11:41:45;;;;;;;;;;;;;;;31.85;36.33;101944.96;106292;1265;25452;-50
2023/09/02 11:44:28;;;;;;;;;;;;;;;31.86;36.70;101947.34;106419;1265;25491;-50
2023/09/02 11:46:55;;;;;;;;;;;;;;;31.88;36.93;101948.94;106340;1273;23344;-51
2023/09/02 11:49:25;;;;;;;;;;;;;;;31.91;36.52;101946.52;106405;1262;25344;-49
2023/09/02 11:51:51;;;;;;;;;;;;;;;31.92;36.13;101946.45;106362;1273;25371;-50
2023/09/02 11:54:18;;;;;;;;;;;;;;;31.93;36.38;101945.06;106373;1262;25424;-51
2023/09/02 11:56:55;;;;;;;;;;;;;;;31.95;36.65;101946.52;106363;1262;25577;-49
2023/09/02 11:59:22;;;;;;;;;;;;;;;31.97;36.90;101940.76;106380;1265;24209;-50
2023/09/02 12:02:06;;;;;;;;;;;;;;;31.97;36.81;101943.97;106382;1264;25340;-50
2023/09/02 12:04:37;;;;;;;;;;;;;;;31.93;36.90;101943.10;106470;1268;23018;-54
2023/09/02 12:07:05;;;;;;;;;;;;;;;32.01;36.96;101943.80;106827;1259;25337;-49
2023/09/02 12:09:34;;;;;;;;;;;;;;;32.05;36.68;101945.95;106812;1257;25456;-50
2023/09/02 12:12:01;;;;;;;;;;;;;;;32.06;36.44;101944.61;106673;1260;25325;-49
2023/09/02 12:14:28;;;;;;;;;;;;;;;32.04;36.22;101940.81;106868;1257;25315;-50
2023/09/02 12:16:58;;;;;;;;;;;;;;;32.00;36.00;101936.15;106613;1267;25344;-50
2023/09/02 12:19:25;;;;;;;;;;;;;;;31.97;36.34;101935.41;106895;1256;25337;-49
2023/09/02 12:21:53;;;;;;;;;;;;;;;31.95;36.61;101934.67;106700;1259;25408;-49
2023/09/02 12:24:19;;;;;;;;;;;;;;;31.95;36.77;101932.17;106555;1270;24189;-50
2023/09/02 12:26:46;;;;;;;;;;;;;;;31.96;36.96;101937.67;106747;1260;24176;-50
2023/09/02 12:29:21;;;;;;;;;;;;;;;31.97;36.52;101937.39;106858;1259;25316;-50
2023/09/02 12:31:54;;;;;;;;;;;;;;;31.97;36.32;101940.73;106504;1276;25428;-49